Time;durP1;ratioP1;P1;durP2;ratioP2;P2;SDS_P1;SDS_P2;PMS_P1;PMS_P2;Temp;Humidity;BMP_temperature;BMP_pressure;BME280_temperature;BME280_humidity;BME280_pressure;Samples;Min_cycle;Max_cycle;Signal;HPM_P1;HPM_P2
2021/07/29 00:01:14;;;;;;;5.40;1.43;;;16.30;99.90;;;;;;5046739;28;20573;-51
2021/07/29 00:03:41;;;;;;;4.97;1.63;;;16.30;99.90;;;;;;5042841;28;20669;-51
2021/07/29 00:06:28;;;;;;;3.93;1.60;;;16.10;99.90;;;;;;5043230;28;20246;-51
2021/07/29 00:08:54;;;;;;;2.60;1.60;;;16.20;99.90;;;;;;5045019;28;20276;-51
2021/07/29 00:11:22;;;;;;;3.90;1.60;;;16.20;99.90;;;;;;5042271;28;20413;-51
2021/07/29 00:13:57;;;;;;;2.50;1.53;;;16.10;99.90;;;;;;5040301;28;20312;-51
2021/07/29 00:16:28;;;;;;;2.40;1.80;;;16.10;99.90;;;;;;5040821;28;20229;-51
2021/07/29 00:19:05;;;;;;;4.43;1.50;;;16.10;99.90;;;;;;5038388;28;20833;-51
2021/07/29 00:21:33;;;;;;;6.00;1.43;;;16.00;99.90;;;;;;5044499;28;20206;-51
2021/07/29 00:24:00;;;;;;;5.30;1.57;;;16.00;99.90;;;;;;5041021;28;20247;-51
2021/07/29 00:26:28;;;;;;;4.73;1.50;;;15.90;99.90;;;;;;5042666;28;20192;-51
2021/07/29 00:28:55;;;;;;;5.80;1.50;;;15.90;99.90;;;;;;5044778;28;20624;-51
2021/07/29 00:31:35;;;;;;;5.00;1.60;;;15.90;99.90;;;;;;5039341;28;20321;-51
2021/07/29 00:34:04;;;;;;;4.43;2.07;;;16.10;99.90;;;;;;5040348;28;20245;-51
2021/07/29 00:36:32;;;;;;;4.20;1.17;;;16.00;99.90;;;;;;5041823;28;20320;-51
2021/07/29 00:38:59;;;;;;;5.77;1.77;;;16.00;99.90;;;;;;5046540;28;20216;-51
2021/07/29 00:41:26;;;;;;;5.17;1.67;;;16.10;99.90;;;;;;5040814;28;20229;-51
2021/07/29 00:44:00;;;;;;;3.37;1.30;;;16.00;99.90;;;;;;5041846;28;20234;-51
2021/07/29 00:46:30;;;;;;;5.87;1.80;;;16.10;99.90;;;;;;5041149;28;20237;-51
2021/07/29 00:48:57;;;;;;;5.70;1.80;;;16.00;99.90;;;;;;5038814;28;20206;-51
2021/07/29 00:51:26;;;;;;;3.10;1.30;;;15.80;99.90;;;;;;5040472;28;20220;-51
2021/07/29 00:53:53;;;;;;;4.83;1.50;;;15.80;99.90;;;;;;5042164;28;20300;-51
2021/07/29 00:56:20;;;;;;;3.77;1.30;;;15.80;99.90;;;;;;5046271;28;20267;-51
2021/07/29 00:58:47;;;;;;;3.90;1.93;;;15.80;99.90;;;;;;5041261;28;20735;-51
2021/07/29 01:01:13;;;;;;;3.40;1.37;;;15.80;99.90;;;;;;5041624;28;20240;-51
2021/07/29 01:03:41;;;;;;;6.23;1.53;;;15.80;99.90;;;;;;5042637;28;20693;-51
2021/07/29 01:06:09;;;;;;;5.50;1.50;;;15.70;99.90;;;;;;5037932;28;20656;-51
2021/07/29 01:08:58;;;;;;;6.33;1.83;;;15.70;99.90;;;;;;5042409;28;20292;-51
2021/07/29 01:11:25;;;;;;;5.00;1.50;;;15.70;99.90;;;;;;5040498;28;20213;-51
2021/07/29 01:13:52;;;;;;;4.03;1.57;;;15.70;99.90;;;;;;5038726;28;20568;-50
2021/07/29 01:16:20;;;;;;;6.47;1.40;;;15.80;99.90;;;;;;5041058;28;20599;-51
2021/07/29 01:18:47;;;;;;;5.23;1.60;;;15.80;99.90;;;;;;5040510;28;20664;-51
2021/07/29 01:21:14;;;;;;;4.83;1.53;;;15.70;99.90;;;;;;5036613;28;20263;-51
2021/07/29 01:23:41;;;;;;;5.37;1.50;;;15.80;99.90;;;;;;5039782;28;20252;-51
2021/07/29 01:26:08;;;;;;;6.03;1.40;;;15.80;99.90;;;;;;5042067;28;20330;-51
2021/07/29 01:28:35;;;;;;;8.03;1.90;;;15.80;99.90;;;;;;5042545;28;20218;-51
2021/07/29 01:31:02;;;;;;;5.17;1.60;;;15.80;99.90;;;;;;5041128;28;20259;-51
2021/07/29 01:33:31;;;;;;;3.30;1.43;;;15.80;99.90;;;;;;5034052;28;20455;-51
2021/07/29 01:35:58;;;;;;;5.80;1.67;;;15.70;99.90;;;;;;5038135;28;20204;-51
2021/07/29 01:38:25;;;;;;;5.93;1.27;;;15.70;99.90;;;;;;5042676;28;20227;-51
2021/07/29 01:40:52;;;;;;;5.20;1.30;;;15.60;99.90;;;;;;5042009;28;20231;-51
2021/07/29 01:43:20;;;;;;;5.77;1.70;;;15.60;99.90;;;;;;5021604;28;20206;-51
2021/07/29 01:45:47;;;;;;;6.87;1.60;;;15.60;99.90;;;;;;5039677;28;20200;-51
2021/07/29 01:48:14;;;;;;;2.83;1.40;;;15.60;99.90;;;;;;5042508;28;20192;-51
2021/07/29 01:50:43;;;;;;;4.57;1.60;;;15.60;99.90;;;;;;5040187;28;20200;-51
2021/07/29 01:53:10;;;;;;;4.33;1.23;;;15.60;99.90;;;;;;5040572;28;20313;-51
2021/07/29 01:55:50;;;;;;;2.83;1.43;;;15.50;99.90;;;;;;5043621;28;20207;-51
2021/07/29 01:58:18;;;;;;;6.57;1.63;;;15.50;99.90;;;;;;5042162;28;20192;-51
2021/07/29 02:00:47;;;;;;;3.30;1.43;;;15.40;99.90;;;;;;5041194;28;20607;-51
2021/07/29 02:03:15;;;;;;;6.73;1.90;;;15.50;99.90;;;;;;5039393;28;20280;-51
2021/07/29 02:05:42;;;;;;;5.40;1.93;;;15.40;99.90;;;;;;5037405;28;20216;-51
2021/07/29 02:08:09;;;;;;;3.93;1.27;;;15.50;99.90;;;;;;5040484;28;20658;-50
2021/07/29 02:10:36;;;;;;;6.53;1.50;;;15.40;99.90;;;;;;5042182;28;20618;-50
2021/07/29 02:13:03;;;;;;;6.50;1.50;;;15.50;99.90;;;;;;5040815;28;20310;-50
2021/07/29 02:15:30;;;;;;;7.07;1.70;;;15.50;99.90;;;;;;5041662;28;20232;-51
2021/07/29 02:17:58;;;;;;;4.63;1.67;;;15.50;99.90;;;;;;5042456;28;20605;-50
2021/07/29 02:20:27;;;;;;;5.43;1.40;;;15.50;99.90;;;;;;5038797;28;20228;-51
2021/07/29 02:22:54;;;;;;;7.57;1.50;;;15.60;99.90;;;;;;5036014;28;20280;-51
2021/07/29 02:25:20;;;;;;;4.47;1.57;;;15.50;99.90;;;;;;5042855;28;20579;-51
2021/07/29 02:27:47;;;;;;;4.07;1.53;;;15.40;99.90;;;;;;5042936;28;20244;-51
2021/07/29 02:30:14;;;;;;;4.77;1.80;;;15.40;99.90;;;;;;5039808;28;20301;-51
2021/07/29 02:32:41;;;;;;;2.73;1.40;;;15.50;99.90;;;;;;5040946;28;20282;-51
2021/07/29 02:35:09;;;;;;;5.47;1.47;;;15.50;99.90;;;;;;5037979;28;20233;-51
2021/07/29 02:37:36;;;;;;;6.97;1.80;;;15.40;99.90;;;;;;5043452;28;20239;-51
2021/07/29 02:40:03;;;;;;;6.90;2.17;;;15.40;99.90;;;;;;5041777;28;20235;-51
2021/07/29 02:42:30;;;;;;;6.13;1.60;;;15.40;99.90;;;;;;5044486;28;20236;-51
2021/07/29 02:44:56;;;;;;;7.73;1.80;;;15.40;99.90;;;;;;5041141;28;20231;-51
2021/07/29 02:47:23;;;;;;;6.77;1.90;;;15.50;99.90;;;;;;5042572;28;20455;-51
2021/07/29 02:49:50;;;;;;;8.43;1.60;;;15.50;99.90;;;;;;5034521;28;20289;-51
2021/07/29 02:52:17;;;;;;;3.43;2.83;;;15.50;99.90;;;;;;5041531;28;20306;-51
2021/07/29 02:54:44;;;;;;;6.70;1.83;;;15.40;99.90;;;;;;5037233;28;20298;-51
2021/07/29 02:57:11;;;;;;;5.10;1.80;;;15.40;99.90;;;;;;5042315;28;20233;-51
2021/07/29 02:59:37;;;;;;;6.90;1.80;;;15.30;99.90;;;;;;5037716;28;20288;-51
2021/07/29 03:02:04;;;;;;;6.43;1.67;;;15.20;99.90;;;;;;5034644;28;20314;-51
2021/07/29 03:04:31;;;;;;;4.97;1.57;;;15.30;99.90;;;;;;5033568;28;20233;-51
2021/07/29 03:06:59;;;;;;;7.83;2.20;;;15.50;99.90;;;;;;5042258;28;20211;-50
2021/07/29 03:09:26;;;;;;;8.70;1.63;;;15.40;99.90;;;;;;5038755;28;20244;-51
2021/07/29 03:11:53;;;;;;;3.47;2.20;;;15.40;99.90;;;;;;5040792;28;20806;-51
2021/07/29 03:14:19;;;;;;;6.20;1.93;;;15.30;99.90;;;;;;5040383;28;20461;-51
2021/07/29 03:16:46;;;;;;;8.07;1.80;;;15.30;99.90;;;;;;5040434;28;20201;-51
2021/07/29 03:19:13;;;;;;;3.40;1.73;;;15.30;99.90;;;;;;5035002;28;20236;-51
2021/07/29 03:21:40;;;;;;;5.77;1.80;;;15.30;99.90;;;;;;5041867;28;20226;-51
2021/07/29 03:24:07;;;;;;;6.97;1.77;;;15.20;99.90;;;;;;5038531;28;20300;-51
2021/07/29 03:26:34;;;;;;;3.73;1.60;;;15.20;99.90;;;;;;5038764;28;20540;-51
2021/07/29 03:29:00;;;;;;;10.77;2.00;;;15.20;99.90;;;;;;5038303;28;20258;-51
2021/07/29 03:31:27;;;;;;;5.23;2.00;;;15.30;99.90;;;;;;5040740;28;20314;-51
2021/07/29 03:33:54;;;;;;;4.43;1.60;;;15.20;99.90;;;;;;5032059;28;20754;-51
2021/07/29 03:36:21;;;;;;;5.20;1.80;;;15.20;99.90;;;;;;5028786;28;20283;-51
2021/07/29 03:38:48;;;;;;;8.57;1.83;;;15.20;99.90;;;;;;5039255;28;20311;-51
2021/07/29 03:41:14;;;;;;;5.03;1.70;;;15.30;99.90;;;;;;5037687;28;20738;-51
2021/07/29 03:43:41;;;;;;;7.67;2.00;;;15.30;99.90;;;;;;5037185;28;20209;-51
2021/07/29 03:46:09;;;;;;;4.37;1.50;;;15.30;99.90;;;;;;5040536;28;20215;-51
2021/07/29 03:48:37;;;;;;;9.83;1.83;;;15.20;99.90;;;;;;5035752;28;20200;-51
2021/07/29 03:51:04;;;;;;;4.13;1.63;;;15.20;99.90;;;;;;5035445;28;20204;-51
2021/07/29 03:53:31;;;;;;;5.37;1.60;;;15.30;99.90;;;;;;5036255;28;20366;-51
2021/07/29 03:55:57;;;;;;;8.60;1.63;;;15.30;99.90;;;;;;5042760;28;20194;-51
2021/07/29 03:58:24;;;;;;;7.93;2.13;;;15.30;99.90;;;;;;5039001;28;20229;-51
2021/07/29 04:00:55;;;;;;;6.27;2.43;;;15.30;99.90;;;;;;5040635;28;20317;-51
2021/07/29 04:03:21;;;;;;;8.23;1.80;;;15.30;99.90;;;;;;5039013;28;20229;-54
2021/07/29 04:05:49;;;;;;;6.47;2.30;;;15.30;99.90;;;;;;5034972;28;20307;-51
2021/07/29 04:08:15;;;;;;;6.63;1.73;;;15.40;99.90;;;;;;5039547;28;20603;-51
2021/07/29 04:10:42;;;;;;;4.70;2.43;;;15.30;99.90;;;;;;5040986;28;20215;-51
2021/07/29 04:13:09;;;;;;;6.70;1.63;;;15.30;99.90;;;;;;5042442;28;20793;-52
2021/07/29 04:15:36;;;;;;;5.73;1.57;;;15.40;99.90;;;;;;5043407;28;20323;-50
2021/07/29 04:18:03;;;;;;;8.03;2.87;;;15.40;99.90;;;;;;5043396;28;20304;-51
2021/07/29 04:20:29;;;;;;;8.30;2.03;;;15.40;99.90;;;;;;5041025;28;20300;-51
2021/07/29 04:22:56;;;;;;;10.57;2.20;;;15.50;99.90;;;;;;5036851;28;20697;-52
2021/07/29 04:25:23;;;;;;;7.80;2.17;;;15.50;99.90;;;;;;5042039;28;20248;-51
2021/07/29 04:27:49;;;;;;;7.17;1.73;;;15.50;99.90;;;;;;5043463;28;20288;-51
2021/07/29 04:30:16;;;;;;;6.43;1.80;;;15.60;99.90;;;;;;5038961;28;20228;-51
2021/07/29 04:32:43;;;;;;;3.60;1.53;;;15.50;99.90;;;;;;5040040;28;20320;-51
2021/07/29 04:35:10;;;;;;;8.70;2.23;;;15.60;99.90;;;;;;5037524;28;20985;-51
2021/07/29 04:37:37;;;;;;;8.80;1.80;;;15.60;99.90;;;;;;5039944;28;20295;-51
2021/07/29 04:40:04;;;;;;;11.20;2.10;;;15.70;99.90;;;;;;5041788;28;20259;-51
2021/07/29 04:42:31;;;;;;;6.37;1.90;;;15.70;99.90;;;;;;5039704;28;20245;-51
2021/07/29 04:44:57;;;;;;;8.83;2.30;;;15.70;99.90;;;;;;5035737;28;20682;-51
2021/07/29 04:47:25;;;;;;;9.57;1.93;;;15.60;99.90;;;;;;5043848;28;20231;-51
2021/07/29 04:49:53;;;;;;;12.47;1.93;;;15.60;99.90;;;;;;5040129;28;20236;-51
2021/07/29 04:52:19;;;;;;;10.03;2.37;;;15.70;99.90;;;;;;5042896;28;20746;-51
2021/07/29 04:54:46;;;;;;;6.17;1.97;;;15.70;99.90;;;;;;5036634;28;20275;-51
2021/07/29 04:57:13;;;;;;;8.50;2.67;;;15.70;99.90;;;;;;5041919;28;20224;-51
2021/07/29 04:59:41;;;;;;;5.83;1.93;;;15.70;99.90;;;;;;5040408;28;20320;-51
2021/07/29 05:02:08;;;;;;;8.77;1.73;;;15.70;99.90;;;;;;5041261;28;20247;-51
2021/07/29 05:04:35;;;;;;;3.53;1.90;;;15.70;99.90;;;;;;5038632;28;20563;-51
2021/07/29 05:07:03;;;;;;;9.43;1.90;;;15.70;99.90;;;;;;5040548;28;20200;-51
2021/07/29 05:09:29;;;;;;;5.97;1.80;;;15.70;99.90;;;;;;5036887;28;20204;-51
2021/07/29 05:12:01;;;;;;;4.20;1.80;;;15.70;99.90;;;;;;5042767;28;20230;-50
2021/07/29 05:14:27;;;;;;;5.40;1.77;;;15.80;99.90;;;;;;5039029;28;20232;-51
2021/07/29 05:17:00;;;;;;;6.53;2.07;;;15.80;99.90;;;;;;5043559;28;20204;-51
2021/07/29 05:19:27;;;;;;;6.50;2.30;;;15.70;99.90;;;;;;5037436;28;20638;-51
2021/07/29 05:21:54;;;;;;;6.37;1.80;;;15.70;99.90;;;;;;5039366;28;20251;-51
2021/07/29 05:24:21;;;;;;;8.10;2.23;;;15.70;99.90;;;;;;5037172;28;20215;-51
2021/07/29 05:26:47;;;;;;;9.87;2.20;;;15.80;99.90;;;;;;5041910;28;20639;-51
2021/07/29 05:29:14;;;;;;;7.23;1.67;;;15.70;99.90;;;;;;5036209;28;20670;-51
2021/07/29 05:31:42;;;;;;;5.20;1.90;;;15.80;99.90;;;;;;5043557;28;20252;-51
2021/07/29 05:34:11;;;;;;;6.80;2.70;;;16.00;99.90;;;;;;5039515;28;20248;-51
2021/07/29 05:36:38;;;;;;;9.97;3.20;;;16.00;99.90;;;;;;5041348;28;20309;-51
2021/07/29 05:39:05;;;;;;;7.60;2.40;;;16.00;99.90;;;;;;5040354;28;20660;-51
2021/07/29 05:41:32;;;;;;;8.73;2.63;;;16.00;99.90;;;;;;5040324;28;20778;-51
2021/07/29 05:43:59;;;;;;;3.63;1.80;;;16.00;99.90;;;;;;5037884;28;20378;-51
2021/07/29 05:46:25;;;;;;;11.67;2.20;;;16.00;99.90;;;;;;5036720;28;20289;-51
2021/07/29 05:48:52;;;;;;;5.80;2.10;;;16.10;99.90;;;;;;5041838;28;20220;-51
2021/07/29 05:51:20;;;;;;;6.27;2.33;;;16.20;99.90;;;;;;5034068;28;20683;-51
2021/07/29 05:53:47;;;;;;;10.57;2.00;;;16.20;99.90;;;;;;5038814;28;20727;-51
2021/07/29 05:56:14;;;;;;;7.37;1.70;;;16.20;99.90;;;;;;5037983;28;20210;-51
2021/07/29 05:58:41;;;;;;;6.23;1.97;;;16.30;99.90;;;;;;5038463;28;20284;-51
2021/07/29 06:01:11;;;;;;;7.10;2.00;;;16.20;99.90;;;;;;5031248;28;20234;-51
2021/07/29 06:03:38;;;;;;;5.10;1.70;;;16.30;99.90;;;;;;5043346;28;20262;-51
2021/07/29 06:06:05;;;;;;;6.77;2.03;;;16.30;99.90;;;;;;5038910;28;20601;-51
2021/07/29 06:08:32;;;;;;;9.53;2.03;;;16.20;99.90;;;;;;5039831;28;20563;-51
2021/07/29 06:11:02;;;;;;;11.27;2.53;;;16.10;99.90;;;;;;5040572;28;20333;-51
2021/07/29 06:13:29;;;;;;;8.20;2.20;;;16.20;99.90;;;;;;5040689;28;20216;-51
2021/07/29 06:15:59;;;;;;;4.60;2.90;;;16.30;99.90;;;;;;5040772;28;20224;-51
2021/07/29 06:18:26;;;;;;;6.73;2.17;;;16.30;99.90;;;;;;5038558;28;20275;-51
2021/07/29 06:20:52;;;;;;;10.03;2.20;;;16.40;99.90;;;;;;5036501;28;20314;-51
2021/07/29 06:23:19;;;;;;;8.97;2.13;;;16.40;99.90;;;;;;5039432;28;20309;-52
2021/07/29 06:25:46;;;;;;;9.10;2.10;;;16.50;99.90;;;;;;5037168;28;20293;-51
2021/07/29 06:28:14;;;;;;;8.93;2.10;;;16.50;99.90;;;;;;5033180;28;20209;-52
2021/07/29 06:30:44;;;;;;;6.13;2.10;;;16.40;99.90;;;;;;5037447;28;20284;-51
2021/07/29 06:33:11;;;;;;;5.67;1.80;;;16.40;99.90;;;;;;5037201;28;20539;-51
2021/07/29 06:35:38;;;;;;;5.97;2.00;;;16.30;99.90;;;;;;5036064;28;20205;-51
2021/07/29 06:38:04;;;;;;;5.93;2.00;;;16.50;99.90;;;;;;5039101;28;20632;-51
2021/07/29 06:40:31;;;;;;;6.17;1.67;;;16.30;99.90;;;;;;5038920;28;20252;-51
2021/07/29 06:42:58;;;;;;;14.00;2.97;;;16.30;99.90;;;;;;5039754;28;20593;-51
2021/07/29 06:45:25;;;;;;;5.70;1.87;;;16.30;99.90;;;;;;5036190;28;20666;-51
2021/07/29 06:47:51;;;;;;;5.50;1.97;;;16.50;99.90;;;;;;5039325;28;20228;-51
2021/07/29 06:50:18;;;;;;;10.50;2.53;;;16.60;99.90;;;;;;5037175;28;20295;-51
2021/07/29 06:52:45;;;;;;;10.67;2.60;;;16.90;99.90;;;;;;5039885;28;20787;-51
2021/07/29 06:55:12;;;;;;;9.33;2.73;;;17.10;1.00;;;;;;5038968;28;20749;-52
2021/07/29 06:57:38;;;;;;;7.57;2.80;;;16.90;1.00;;;;;;5041709;28;20288;-51
2021/07/29 07:00:06;;;;;;;10.80;2.63;;;16.70;1.00;;;;;;5038863;28;20197;-51
2021/07/29 07:02:33;;;;;;;7.80;2.73;;;16.60;1.00;;;;;;5037324;28;20247;-51
2021/07/29 07:05:00;;;;;;;4.50;2.27;;;16.70;1.00;;;;;;5034584;28;20376;-51
2021/07/29 07:07:26;;;;;;;11.07;2.50;;;16.70;54.50;;;;;;5039035;28;20300;-51
2021/07/29 07:09:54;;;;;;;10.77;2.53;;;16.90;3.90;;;;;;5039218;28;20204;-51
2021/07/29 07:12:21;;;;;;;8.80;2.93;;;16.90;1.00;;;;;;5038048;28;20308;-51
2021/07/29 07:14:48;;;;;;;7.50;2.67;;;16.90;1.00;;;;;;5040364;28;20225;-51
2021/07/29 07:17:14;;;;;;;6.27;2.90;;;16.90;1.00;;;;;;5038098;28;20263;-51
2021/07/29 07:19:41;;;;;;;9.63;2.57;;;17.10;1.00;;;;;;5038619;28;20201;-51
2021/07/29 07:22:08;;;;;;;8.20;2.87;;;17.50;1.00;;;;;;5037711;28;20233;-51
2021/07/29 07:24:35;;;;;;;8.13;3.13;;;17.70;1.00;;;;;;5039753;28;20234;-51
2021/07/29 07:27:05;;;;;;;8.70;2.80;;;17.60;1.00;;;;;;5041894;28;20200;-52
2021/07/29 07:29:33;;;;;;;9.60;2.93;;;17.60;99.90;;;;;;5039501;28;20206;-51
2021/07/29 07:32:01;;;;;;;9.20;3.00;;;17.60;1.00;;;;;;5040345;28;20233;-51
2021/07/29 07:34:28;;;;;;;12.70;3.37;;;17.30;99.90;;;;;;5038089;28;20255;-51
2021/07/29 07:36:55;;;;;;;12.67;2.50;;;17.30;1.00;;;;;;5035920;28;20305;-51
2021/07/29 07:39:23;;;;;;;9.53;2.90;;;17.40;1.00;;;;;;5041544;28;20274;-50
2021/07/29 07:41:50;;;;;;;10.60;2.30;;;17.70;99.90;;;;;;5042563;28;20703;-50
2021/07/29 07:44:17;;;;;;;12.87;2.63;;;17.70;1.00;;;;;;5041407;28;20248;-50
2021/07/29 07:46:44;;;;;;;7.93;2.40;;;17.70;1.00;;;;;;5045645;28;20240;-51
2021/07/29 07:49:12;;;;;;;8.13;2.40;;;17.50;1.00;;;;;;5042475;28;20688;-50
2021/07/29 07:51:40;;;;;;;7.07;2.43;;;17.70;45.40;;;;;;5043525;28;20282;-50
2021/07/29 07:54:07;;;;;;;6.93;2.40;;;17.60;1.00;;;;;;5042251;28;20210;-51
2021/07/29 07:56:39;;;;;;;7.40;2.97;;;17.70;1.00;;;;;;5042992;28;20267;-50
2021/07/29 07:59:11;;;;;;;7.37;2.10;;;17.70;99.90;;;;;;5042231;28;20213;-51
2021/07/29 08:01:41;;;;;;;8.07;2.63;;;17.80;1.00;;;;;;5045499;28;20308;-50
2021/07/29 08:04:08;;;;;;;9.70;3.27;;;17.80;1.00;;;;;;5039705;28;20784;-51
2021/07/29 08:06:36;;;;;;;6.10;2.33;;;18.00;1.00;;;;;;5045268;28;20300;-50
2021/07/29 08:09:04;;;;;;;7.67;2.30;;;17.90;16.00;;;;;;5041771;28;20665;-51
2021/07/29 08:11:31;;;;;;;7.70;2.77;;;18.00;99.90;;;;;;5042392;28;20649;-51
2021/07/29 08:13:58;;;;;;;7.70;1.90;;;18.10;1.00;;;;;;5035580;28;20278;-51
2021/07/29 08:16:25;;;;;;;6.00;2.37;;;18.10;1.00;;;;;;5041877;28;20206;-51
2021/07/29 08:18:53;;;;;;;7.47;2.43;;;18.10;99.90;;;;;;5041983;28;20236;-51
2021/07/29 08:21:20;;;;;;;6.37;2.67;;;18.20;1.00;;;;;;5044967;28;20255;-51
2021/07/29 08:23:48;;;;;;;3.97;2.30;;;18.30;1.00;;;;;;5038524;28;20733;-51
2021/07/29 08:26:14;;;;;;;4.07;2.30;;;18.40;1.00;;;;;;5046028;28;20240;-51
2021/07/29 08:28:42;;;;;;;9.20;2.20;;;18.60;1.00;;;;;;5040659;28;20366;-51
2021/07/29 08:31:10;;;;;;;8.57;2.50;;;18.70;1.00;;;;;;5044723;28;20265;-51
2021/07/29 08:33:37;;;;;;;8.10;2.37;;;18.70;1.00;;;;;;5037708;28;20212;-50
2021/07/29 08:36:05;;;;;;;7.73;2.70;;;18.60;99.90;;;;;;5043783;28;20235;-51
2021/07/29 08:38:31;;;;;;;7.17;2.00;;;18.50;99.90;;;;;;5043191;28;20640;-51
2021/07/29 08:40:58;;;;;;;4.20;1.73;;;18.60;99.90;;;;;;5042565;28;20238;-51
2021/07/29 08:43:28;;;;;;;7.70;2.30;;;19.10;1.00;;;;;;5039951;28;20301;-51
2021/07/29 08:45:54;;;;;;;4.83;1.90;;;19.20;1.00;;;;;;5041339;28;20219;-51
2021/07/29 08:48:26;;;;;;;9.23;2.13;;;18.70;1.00;;;;;;5039846;28;20239;-51
2021/07/29 08:50:54;;;;;;;5.50;2.27;;;18.70;1.00;;;;;;5029989;28;20204;-51
2021/07/29 08:53:22;;;;;;;5.40;2.20;;;18.60;1.00;;;;;;5040510;28;20341;-51
2021/07/29 08:55:53;;;;;;;5.97;2.30;;;18.80;1.00;;;;;;5036312;28;21178;-51
2021/07/29 08:58:20;;;;;;;8.83;2.80;;;18.70;99.90;;;;;;5043615;28;20693;-50
2021/07/29 09:01:09;;;;;;;7.43;2.33;;;19.00;11.30;;;;;;5041065;28;20235;-50
2021/07/29 09:03:36;;;;;;;7.47;2.90;;;19.00;1.00;;;;;;5042164;28;20273;-51
2021/07/29 09:06:11;;;;;;;8.43;2.30;;;18.80;1.00;;;;;;5042110;28;20231;-50
2021/07/29 09:08:55;;;;;;;10.13;2.40;;;18.60;99.90;;;;;;5036660;28;20371;-51
2021/07/29 09:11:38;;;;;;;4.23;2.30;;;18.60;99.90;;;;;;5039459;28;20694;-50
2021/07/29 09:14:13;;;;;;;5.87;2.83;;;18.40;99.90;;;;;;5032975;28;20905;-50
2021/07/29 09:16:52;;;;;;;8.53;2.50;;;18.90;1.00;;;;;;5034148;28;20298;-50
2021/07/29 09:19:31;;;;;;;6.20;2.60;;;19.30;1.00;;;;;;5032375;28;20231;-50
2021/07/29 09:22:12;;;;;;;3.97;2.40;;;19.60;1.00;;;;;;5037977;28;20256;-50
2021/07/29 09:25:01;;;;;;;7.87;2.87;;;19.90;1.00;;;;;;5035208;28;20260;-50
2021/07/29 09:27:38;;;;;;;9.43;2.17;;;19.80;1.00;;;;;;5035651;28;20312;-50
2021/07/29 09:30:26;;;;;;;8.93;2.23;;;19.50;1.00;;;;;;5037883;28;20304;-50
2021/07/29 09:33:03;;;;;;;5.37;2.17;;;19.40;1.00;;;;;;5037538;28;20414;-49
2021/07/29 09:35:52;;;;;;;9.67;2.23;;;19.30;1.00;;;;;;5033261;28;20253;-50
2021/07/29 09:38:32;;;;;;;6.60;2.17;;;19.20;78.40;;;;;;5059086;28;20291;-50
2021/07/29 09:41:06;;;;;;;6.20;2.03;;;19.10;1.00;;;;;;5042998;28;20207;-50
2021/07/29 09:43:37;;;;;;;5.40;2.20;;;19.10;1.00;;;;;;5043031;28;20607;-50
2021/07/29 09:46:15;;;;;;;5.40;1.80;;;19.00;1.00;;;;;;5043417;28;20831;-50
2021/07/29 09:48:46;;;;;;;6.60;2.13;;;18.70;1.00;;;;;;5042874;28;20561;-49
2021/07/29 09:51:15;;;;;;;8.63;2.30;;;18.60;99.90;;;;;;5041731;28;20436;-50
2021/07/29 09:53:44;;;;;;;11.07;2.30;;;18.60;1.00;;;;;;5037642;28;20628;-49
2021/07/29 09:56:12;;;;;;;11.07;2.37;;;18.50;1.00;;;;;;5040909;28;20194;-50
2021/07/29 09:59:01;;;;;;;5.53;2.47;;;18.30;99.90;;;;;;5039238;28;20248;-50
2021/07/29 10:01:29;;;;;;;8.10;2.40;;;18.20;1.00;;;;;;5035390;28;20637;-50
2021/07/29 10:03:59;;;;;;;3.00;1.80;;;18.20;1.00;;;;;;5033792;28;20239;-50
2021/07/29 10:06:32;;;;;;;7.93;2.30;;;18.20;1.00;;;;;;5038207;28;20215;-50
2021/07/29 10:09:05;;;;;;;6.00;2.20;;;18.20;1.00;;;;;;5037176;28;20687;-50
2021/07/29 10:11:35;;;;;;;6.50;2.20;;;18.10;1.00;;;;;;5036726;28;20556;-50
2021/07/29 10:14:02;;;;;;;6.07;2.10;;;18.20;1.00;;;;;;5038451;28;20247;-50
2021/07/29 10:16:50;;;;;;;11.63;2.53;;;18.30;1.00;;;;;;5037895;28;20204;-50
2021/07/29 10:19:18;;;;;;;5.40;2.60;;;18.30;99.90;;;;;;5040521;28;20298;-50
2021/07/29 10:21:46;;;;;;;6.97;2.93;;;18.40;1.00;;;;;;5039304;28;20296;-50
2021/07/29 10:24:14;;;;;;;8.40;3.03;;;18.40;99.90;;;;;;5038460;28;20378;-50
2021/07/29 10:26:59;;;;;;;10.07;3.47;;;18.40;99.90;;;;;;5040067;28;20272;-50
2021/07/29 10:29:30;;;;;;;5.30;3.10;;;18.30;1.00;;;;;;5037094;28;20213;-50
2021/07/29 10:32:02;;;;;;;5.83;2.60;;;18.20;1.00;;;;;;5041036;28;20555;-50
2021/07/29 10:34:33;;;;;;;6.03;2.53;;;18.20;99.90;;;;;;5032063;28;20735;-50
2021/07/29 10:37:05;;;;;;;5.13;2.60;;;18.20;85.70;;;;;;5041600;28;20211;-50
2021/07/29 10:39:52;;;;;;;5.20;2.53;;;18.00;1.00;;;;;;5034147;28;20374;-50
2021/07/29 10:42:28;;;;;;;8.17;2.77;;;17.90;1.00;;;;;;5043258;28;20216;-50
2021/07/29 10:44:59;;;;;;;7.77;2.93;;;17.50;1.00;;;;;;5038465;28;20214;-49
2021/07/29 10:47:41;;;;;;;5.40;2.47;;;17.30;1.00;;;;;;5046215;28;20238;-50
2021/07/29 10:50:08;;;;;;;5.07;2.13;;;17.10;1.00;;;;;;5038828;28;20235;-50
2021/07/29 10:52:37;;;;;;;6.43;2.00;;;16.90;99.90;;;;;;5040475;28;20229;-51
2021/07/29 10:55:07;;;;;;;6.97;2.20;;;16.50;1.00;;;;;;5036124;28;20244;-50
2021/07/29 10:57:33;;;;;;;5.67;3.20;;;16.30;99.90;;;;;;5039218;28;20247;-50
2021/07/29 11:00:00;;;;;;;7.30;2.30;;;16.20;99.90;;;;;;5032956;28;20287;-50
2021/07/29 11:02:41;;;;;;;5.53;2.70;;;16.20;99.90;;;;;;5040237;28;20201;-50
2021/07/29 11:05:09;;;;;;;6.23;2.70;;;16.20;99.90;;;;;;5040101;28;20233;-50
2021/07/29 11:07:42;;;;;;;5.37;1.93;;;16.10;99.90;;;;;;5036334;28;20193;-50
2021/07/29 11:10:12;;;;;;;6.53;2.60;;;16.00;99.90;;;;;;5040374;28;20243;-50
2021/07/29 11:12:40;;;;;;;7.67;2.57;;;16.30;99.90;;;;;;5034062;28;20242;-50
2021/07/29 11:15:09;;;;;;;5.33;2.83;;;16.40;99.90;;;;;;5036856;28;20221;-50
2021/07/29 11:17:37;;;;;;;7.43;3.70;;;16.40;99.90;;;;;;5037432;28;20224;-50
2021/07/29 11:20:05;;;;;;;5.73;3.33;;;16.70;99.90;;;;;;5037565;28;20774;-50
2021/07/29 11:22:43;;;;;;;8.60;3.40;;;16.80;99.90;;;;;;5041204;28;20725;-50
2021/07/29 11:25:11;;;;;;;8.53;3.30;;;16.90;99.90;;;;;;5039992;28;20700;-51
2021/07/29 11:27:38;;;;;;;6.03;2.77;;;17.00;99.90;;;;;;5040428;28;20296;-50
2021/07/29 11:30:05;;;;;;;8.13;3.13;;;17.10;99.90;;;;;;5041451;28;20240;-50
2021/07/29 11:32:44;;;;;;;3.50;2.60;;;17.50;99.90;;;;;;5041690;28;20381;-51
2021/07/29 11:35:16;;;;;;;9.63;3.23;;;17.50;99.90;;;;;;5038810;28;20298;-51
2021/07/29 11:37:45;;;;;;;10.03;3.30;;;17.40;36.10;;;;;;5037976;28;20242;-51
2021/07/29 11:40:25;;;;;;;6.50;3.70;;;17.70;83.40;;;;;;5038492;28;20276;-50
2021/07/29 11:42:52;;;;;;;6.37;2.80;;;17.80;1.00;;;;;;5041570;28;20682;-50
2021/07/29 11:45:32;;;;;;;8.03;3.17;;;17.80;1.00;;;;;;5038180;28;20230;-50
2021/07/29 11:47:59;;;;;;;4.80;3.20;;;17.90;1.00;;;;;;5038425;28;20213;-50
2021/07/29 11:50:37;;;;;;;8.80;3.20;;;18.50;1.00;;;;;;5035334;28;20302;-51
2021/07/29 11:53:05;;;;;;;11.63;4.27;;;19.10;99.90;;;;;;5034368;28;20894;-51
2021/07/29 11:55:33;;;;;;;7.57;3.10;;;19.30;99.90;;;;;;5038350;28;20636;-51
2021/07/29 11:58:15;;;;;;;6.97;3.60;;;19.40;1.00;;;;;;5036088;28;20233;-51
2021/07/29 12:00:44;;;;;;;5.73;2.77;;;19.50;51.80;;;;;;5040584;28;20567;-51
2021/07/29 12:03:11;;;;;;;8.03;3.07;;;19.90;99.90;;;;;;5039454;28;20251;-50
2021/07/29 12:05:40;;;;;;;5.40;2.93;;;20.30;1.00;;;;;;5032118;28;20207;-51
2021/07/29 12:08:07;;;;;;;5.90;2.33;;;20.60;99.90;;;;;;5039449;28;20231;-51
2021/07/29 12:10:35;;;;;;;6.67;3.10;;;20.40;1.00;;;;;;5039887;28;20318;-51
2021/07/29 12:13:03;;;;;;;9.93;2.90;;;20.60;1.00;;;;;;5039071;28;20262;-51
2021/07/29 12:15:30;;;;;;;10.50;2.53;;;21.10;99.90;;;;;;5038175;28;20263;-51
2021/07/29 12:18:21;;;;;;;3.50;2.23;;;21.10;1.00;;;;;;5039319;28;20231;-51
2021/07/29 12:20:50;;;;;;;5.07;2.60;;;21.00;99.90;;;;;;5033958;28;20228;-51
2021/07/29 12:23:20;;;;;;;12.17;3.40;;;21.30;99.90;;;;;;5041818;28;20290;-51
2021/07/29 12:25:48;;;;;;;5.40;2.27;;;21.10;1.00;;;;;;5052888;28;20295;-51
2021/07/29 12:28:15;;;;;;;6.47;2.53;;;20.80;1.00;;;;;;5037268;28;20221;-51
2021/07/29 12:30:45;;;;;;;6.17;2.40;;;21.20;1.00;;;;;;5040529;28;20612;-51
2021/07/29 12:33:20;;;;;;;9.60;3.37;;;21.60;1.00;;;;;;5040839;28;20553;-51
2021/07/29 12:36:00;;;;;;;7.57;3.13;;;21.70;99.90;;;;;;5042020;28;20409;-51
2021/07/29 12:38:34;;;;;;;9.10;2.30;;;22.00;1.00;;;;;;5043388;28;20195;-51
2021/07/29 12:41:03;;;;;;;7.57;2.27;;;22.10;99.90;;;;;;5041442;28;20270;-51
2021/07/29 12:43:30;;;;;;;4.57;1.93;;;22.00;1.00;;;;;;5039261;28;20200;-51
2021/07/29 12:46:06;;;;;;;4.97;2.43;;;21.10;99.90;;;;;;5041132;28;20299;-51
2021/07/29 12:48:59;;;;;;;6.43;2.50;;;20.80;1.00;;;;;;5042211;28;20256;-51
2021/07/29 12:51:37;;;;;;;7.17;2.90;;;20.60;1.00;;;;;;5042179;28;20960;-51
2021/07/29 12:54:05;;;;;;;6.87;2.43;;;20.60;1.00;;;;;;5041611;28;20281;-51
2021/07/29 12:56:33;;;;;;;6.40;2.37;;;20.70;1.00;;;;;;5046292;28;20294;-51
2021/07/29 12:59:05;;;;;;;7.70;2.20;;;21.10;25.80;;;;;;5041492;28;20207;-51